createdAt,value
2019-02-16T06:35:05.231Z,13.10
2019-02-16T06:35:38.202Z,13.80
2019-02-16T06:36:38.197Z,32.70
2019-02-16T09:36:44.937Z,19.30
2019-02-16T09:37:17.942Z,19.40
2019-02-16T09:38:17.902Z,19.10
2019-02-16T09:39:17.891Z,15.50
2019-02-16T09:40:17.872Z,17.30
2019-02-16T09:41:17.915Z,16.50
2019-02-16T09:42:17.856Z,14.80
2019-02-16T09:43:17.843Z,14.70
2019-02-16T09:44:17.836Z,11.80
2019-02-16T09:45:17.835Z,13.90
2019-02-16T09:46:17.814Z,12.60
2019-02-16T09:47:17.821Z,14.10
2019-02-16T09:48:17.794Z,12.80
2019-02-16T09:49:17.777Z,14.20
2019-02-16T09:50:17.771Z,14.40
2019-02-16T09:51:17.756Z,15.30
2019-02-16T09:52:17.789Z,13.10
2019-02-16T09:53:17.740Z,12.00
2019-02-16T09:54:17.727Z,18.10
2019-02-16T09:55:17.715Z,13.20
2019-02-16T09:56:17.706Z,14.30
2019-02-16T09:57:17.691Z,13.80
2019-02-16T09:58:17.700Z,14.60
2019-02-16T09:59:17.672Z,13.30
2019-02-16T10:00:17.663Z,15.10
2019-02-16T10:01:17.653Z,15.50
2019-02-16T10:02:17.638Z,13.30
2019-02-16T10:03:17.653Z,14.50
2019-02-16T10:04:17.616Z,14.40
2019-02-16T10:17:28.267Z,16.80
2019-02-16T10:18:01.238Z,14.10
2019-02-16T10:19:01.207Z,19.20
2019-02-16T10:20:01.196Z,14.30
2019-02-16T10:21:01.184Z,17.80
2019-02-16T10:22:01.173Z,14.30
2019-02-16T10:23:01.218Z,14.30
2019-02-16T10:24:01.146Z,15.30
2019-02-16T10:25:01.140Z,15.60
2019-02-16T10:26:01.129Z,18.00
2019-02-16T10:27:01.122Z,15.20
2019-02-16T10:28:01.133Z,14.90
2019-02-16T10:29:01.097Z,15.30
2019-02-16T10:30:01.083Z,13.90
2019-02-16T10:31:01.090Z,13.10
2019-02-16T10:32:01.155Z,18.60
2019-02-16T10:33:01.086Z,14.20
2019-02-16T10:34:01.079Z,13.90
2019-02-16T10:35:01.029Z,16.60
2019-02-16T10:36:01.077Z,13.20
2019-02-16T10:37:01.008Z,15.90
2019-02-16T10:38:01.001Z,14.90
2019-02-16T10:39:01.006Z,16.20
2019-02-16T10:40:00.974Z,16.20
2019-02-16T10:41:01.568Z,15.00
2019-02-16T10:42:00.956Z,15.20
2019-02-16T10:43:00.947Z,12.60
2019-02-16T10:44:01.540Z,16.30
2019-02-16T10:45:00.927Z,17.90
2019-02-16T10:46:28.554Z,14.30
2019-02-16T10:47:01.515Z,14.30
2019-02-16T10:48:00.910Z,18.30
2019-02-16T17:04:10.596Z,27.60
2019-02-16T17:05:09.451Z,23.70
2019-02-16T17:06:09.432Z,24.40
2019-02-16T17:07:09.424Z,24.50
2019-02-16T17:08:09.414Z,21.40
2019-02-16T17:09:09.430Z,23.20
2019-02-16T17:10:09.391Z,22.50
2019-02-16T17:11:09.378Z,21.40
2019-02-16T17:12:09.367Z,22.30
2019-02-16T17:13:09.452Z,23.90
2019-02-16T17:14:09.352Z,24.20
2019-02-16T17:15:09.368Z,20.00
2019-02-16T17:16:09.338Z,23.60
2019-02-16T17:17:09.322Z,19.70
2019-02-16T17:18:09.309Z,21.00
2019-02-16T17:19:09.307Z,20.40
2019-02-16T17:20:09.341Z,20.80
2019-02-16T17:21:09.283Z,20.20
2019-02-16T17:22:09.279Z,20.80
2019-02-16T17:23:09.259Z,22.60
2019-02-16T17:24:09.249Z,20.30
2019-02-16T17:25:09.259Z,19.30
2019-02-16T17:26:09.228Z,20.70
2019-02-16T17:27:09.215Z,25.30
2019-02-16T17:28:09.200Z,17.60
2019-02-16T17:29:09.198Z,21.50
2019-02-16T17:30:09.202Z,20.30
2019-02-16T17:31:09.170Z,20.00
2019-02-16T17:32:09.165Z,22.70
2019-02-16T17:33:09.147Z,22.80
2019-02-16T17:34:09.140Z,19.30
2019-02-16T17:35:09.153Z,20.90
2019-02-16T17:36:09.172Z,25.00
2019-02-16T17:37:09.411Z,18.80
2019-02-16T17:38:09.094Z,21.40
2019-02-16T17:39:09.112Z,24.50
2019-02-16T17:40:12.423Z,23.20
